Valdosta/Moody AFB, Georgia
Current Conditions -  °F | °C
As of 4:58 PM on Thursday 27 Nov 2014 (Local Time) from KVAD Reporting Station
Clear Clear  
Wind Chill: 54°   Ceiling: Unl
Heat Index: 54°   Visibility: 10mi
Dew Point: 31°   Wind: 13mph
Humidity: 41%   Direction: 320°NW
Pressure: 30.26"   Gusts: NA
Location:  30.96°N, 83.2°W
Report Text: KVAD 272158Z AUTO 32011KT 10SM CLR 12/M01 A3026 RMK AO2 SLP250 T01221007 $
Loading
Personal Weather Stations






























Interactive Weather Map New forecast layout! Learn more

10-Day Weather Forecast

Advertisements
Track Severe Weather on mobile